الصفحة الرئيسية
METAR-TAF:

METAR-TAF

مطار :

جزيرة القيامة, تشيلي

دائرة عرض: 27-09S, خط طول: 109-25W, ارتفاع: 51 متر

مراقبة الطقس الحالي

تاريخ ووقت الإصدار 25 دقيقة قبل الساعة 01:00UTC
ريح 7 عقدة من الجنوب الشرقي
درجة الحرارة 18°درجة مئوية
الرطوبة 83%
ضغط 1024 hPa
الرؤية 10 كم أو أكثر
غيوم متفرقة على ارتفاع 1700 قدم
ملبد بالغيوم على ارتفاع 2300 قدم

METAR: SCIP 250100Z 13007KT 9999 SCT017 OVC023 18/15 Q1024 NOSIG

زمن: 19:25 (01:25 UTC)

توقعات

تاريخ ووقت الإصدار 2ساعات و 44 دقيقة قبل الساعة 22:41UTC
التوقعات صالحة من25 الساعة 00 UTC إلى 25 الساعة 24 UTC
ريح 7 عقدة من الشرق
الرؤية 10 كم أو أكثر
غيوم مفككة على ارتفاع 2500 قدم
مؤقت
من 25 الساعة 10 UTC إلى 25 الساعة 14 UTC
الرؤية: 5000 متر
رذاذ خفيف,

TAF: SCIP 242241Z 2500/2524 10007KT 9999 BKN025 TN17/2513Z TX22/2520Z TEMPO 2510/2514 5000 -DZ

أرصاد الطقس والتوقعات من أكثر من 4000 مطار (تقارير الطقس للمطار METAR والتنبؤ بالطقس بالمطارTAF).

المحطات المتاحة هي النقط الصفراء والحمراء على الخريطة.

حرك المؤشر فوق النقطة لمعرفة اسم المحطة.

ثم انقر لمعرفة أرصاد وتوقعات الطقس.

لتغيير الخارطة: اضغط على الأزرار الخضراء مع رمز الصليب الأسود للتكبير. على الزر الأخضر مع شرطة للتصغير، أو على الأسهم الخضراء للخرائط المجاورة.


METAR-TAF: